Santee, California
Current Conditions -  °F | °C
As of 6:35 PM on Tuesday 21 Oct 2014 (Local Time) from KSEE Reporting Station
Clear Clear  
Wind Chill: 68°   Ceiling: Unl
Heat Index: 68°   Visibility: 10mi
Dew Point: 61°   Wind: 7mph
Humidity: 78%   Direction: 300°WNW
Pressure: 29.87"   Gusts: NA
Location:  32.87°N, 116.97°W
Report Text: KSEE 220135Z AUTO 30006KT 10SM CLR 20/16 A2987 RMK AO2
Loading
Personal Weather Stations






























Interactive Weather Map
Tropical Storm Tracking
New forecast layout! Learn more

10-Day Weather Forecast

Advertisements
Track Severe Weather on mobile